Time;durP1;ratioP1;P1;durP2;ratioP2;P2;SDS_P1;SDS_P2;PMS_P1;PMS_P2;Temp;Humidity;BMP_temperature;BMP_pressure;BME280_temperature;BME280_humidity;BME280_pressure;Samples;Min_cycle;Max_cycle;Signal;HPM_P1;HPM_P2
2022/07/16 00:01:26;;;;;;;;;;;;;;;24.22;56.82;100623.06;7406347;19;1786;-58
2022/07/16 00:03:55;;;;;;;;;;;;;;;24.22;56.67;100627.66;7406762;19;1865;-59
2022/07/16 00:06:24;;;;;;;;;;;;;;;24.21;56.49;100629.50;7408016;19;1248;-60
2022/07/16 00:08:53;;;;;;;;;;;;;;;24.21;56.89;100625.94;7409091;19;1600;-59
2022/07/16 00:11:22;;;;;;;;;;;;;;;24.25;56.83;100642.66;7406500;19;1537;-59
2022/07/16 00:13:51;;;;;;;;;;;;;;;24.22;56.58;100617.66;7407923;19;1605;-59
2022/07/16 00:16:19;;;;;;;;;;;;;;;24.28;56.65;100632.34;7404993;19;1750;-58
2022/07/16 00:21:31;;;;;;;;;;;;;;;24.21;56.73;100620.53;7407817;19;1526;-58
2022/07/16 00:23:59;;;;;;;;;;;;;;;24.23;56.94;100634.72;7407537;19;1846;-58
2022/07/16 00:26:27;;;;;;;;;;;;;;;24.22;57.19;100639.28;7407211;19;1196;-59
2022/07/16 00:28:56;;;;;;;;;;;;;;;24.21;56.81;100632.22;7406939;19;1252;-60
2022/07/16 00:31:24;;;;;;;;;;;;;;;24.21;57.00;100637.63;7407156;19;1542;-58
2022/07/16 00:33:55;;;;;;;;;;;;;;;24.22;57.27;100646.56;7405767;19;1407;-60
2022/07/16 00:36:24;;;;;;;;;;;;;;;24.22;57.34;100636.59;7406787;19;1666;-58
2022/07/16 00:38:52;;;;;;;;;;;;;;;24.23;57.05;100629.31;7407045;19;1522;-58
2022/07/16 00:41:20;;;;;;;;;;;;;;;24.19;57.16;100628.84;7406482;19;1545;-59
2022/07/16 00:43:50;;;;;;;;;;;;;;;24.18;57.04;100635.25;7405425;19;1862;-58
2022/07/16 00:46:18;;;;;;;;;;;;;;;24.19;57.01;100634.25;7404582;19;1525;-58
2022/07/16 00:48:47;;;;;;;;;;;;;;;24.19;56.88;100634.25;7406026;19;1446;-59
2022/07/16 00:51:19;;;;;;;;;;;;;;;24.19;57.13;100639.66;7406329;19;1403;-60
2022/07/16 00:53:47;;;;;;;;;;;;;;;24.18;56.98;100635.25;7406436;19;1553;-59
2022/07/16 00:56:17;;;;;;;;;;;;;;;24.16;56.93;100642.69;7405557;19;1340;-59
2022/07/16 00:58:46;;;;;;;;;;;;;;;24.22;56.86;100651.97;7405215;19;1333;-59
2022/07/16 01:01:15;;;;;;;;;;;;;;;24.16;56.76;100650.78;7404281;19;1672;-59
2022/07/16 01:03:44;;;;;;;;;;;;;;;24.21;57.09;100658.38;7405054;19;1563;-59
2022/07/16 01:06:13;;;;;;;;;;;;;;;24.19;56.84;100658.56;7403404;19;1855;-59
2022/07/16 01:08:44;;;;;;;;;;;;;;;24.18;56.79;100654.16;7406366;19;1591;-59
2022/07/16 01:11:13;;;;;;;;;;;;;;;24.19;57.24;100660.41;7404871;19;1554;-59
2022/07/16 01:13:43;;;;;;;;;;;;;;;24.18;57.35;100664.97;7405827;19;1558;-59
2022/07/16 01:16:12;;;;;;;;;;;;;;;24.21;57.04;100667.34;7404086;19;1562;-59
2022/07/16 01:18:41;;;;;;;;;;;;;;;24.18;57.04;100664.97;7405694;19;1589;-59
2022/07/16 01:21:10;;;;;;;;;;;;;;;24.18;57.08;100664.13;7405449;19;1601;-59
2022/07/16 01:23:42;;;;;;;;;;;;;;;24.17;57.35;100648.94;7405425;19;1332;-59
2022/07/16 01:26:11;;;;;;;;;;;;;;;24.16;57.15;100661.59;7403518;19;1845;-59
2022/07/16 01:28:39;;;;;;;;;;;;;;;24.15;57.26;100659.94;7405831;19;1546;-59
2022/07/16 01:31:08;;;;;;;;;;;;;;;24.18;57.25;100667.69;7405292;19;1724;-59
2022/07/16 01:33:37;;;;;;;;;;;;;;;24.17;57.16;100663.31;7404836;19;1574;-58
2022/07/16 01:36:07;;;;;;;;;;;;;;;24.18;56.91;100673.06;7404925;19;1611;-58
2022/07/16 01:38:36;;;;;;;;;;;;;;;24.20;57.39;100681.84;7405411;19;1614;-58
2022/07/16 01:41:08;;;;;;;;;;;;;;;24.19;57.15;100674.78;7404403;19;1506;-58
2022/07/16 01:43:36;;;;;;;;;;;;;;;24.18;57.10;100662.28;7403075;19;1365;-58
2022/07/16 01:46:05;;;;;;;;;;;;;;;24.19;57.03;100677.47;7404128;19;1855;-57
2022/07/16 01:48:33;;;;;;;;;;;;;;;24.19;57.01;100671.22;7403584;19;1534;-57
2022/07/16 01:51:01;;;;;;;;;;;;;;;24.19;57.10;100672.06;7404424;19;1455;-57
2022/07/16 01:53:30;;;;;;;;;;;;;;;24.17;56.90;100678.66;7404017;19;1388;-58
2022/07/16 01:55:59;;;;;;;;;;;;;;;24.15;57.24;100681.53;7401858;19;1664;-57
2022/07/16 01:58:30;;;;;;;;;;;;;;;24.16;56.94;100676.97;7404690;19;1552;-57
2022/07/16 02:00:58;;;;;;;;;;;;;;;24.21;57.10;100690.78;7395051;19;1589;-58
2022/07/16 02:03:26;;;;;;;;;;;;;;;24.19;57.06;100677.47;7402068;19;1435;-58
2022/07/16 02:05:55;;;;;;;;;;;;;;;24.17;57.53;100678.66;7403597;19;1864;-58
2022/07/16 02:08:23;;;;;;;;;;;;;;;24.15;57.11;100657.22;7404750;19;1625;-61
2022/07/16 02:10:52;;;;;;;;;;;;;;;24.14;57.42;100669.03;7403790;19;1680;-59
2022/07/16 02:13:20;;;;;;;;;;;;;;;24.13;57.58;100675.47;7403407;19;1561;-58
2022/07/16 02:15:51;;;;;;;;;;;;;;;24.13;57.33;100688.97;7403847;19;1519;-59
2022/07/16 02:18:19;;;;;;;;;;;;;;;24.14;57.24;100684.41;7404455;19;1341;-59
2022/07/16 02:20:48;;;;;;;;;;;;;;;24.13;57.49;100685.41;7403703;19;1519;-58
2022/07/16 02:23:16;;;;;;;;;;;;;;;24.12;57.12;100681.88;7404095;19;1538;-59
2022/07/16 02:25:45;;;;;;;;;;;;;;;24.15;57.26;100681.53;7401322;19;1846;-58
2022/07/16 02:28:13;;;;;;;;;;;;;;;24.13;57.59;100683.56;7402935;19;1537;-58
2022/07/16 02:30:43;;;;;;;;;;;;;;;24.13;57.15;100686.28;7402562;19;1633;-59
2022/07/16 02:33:15;;;;;;;;;;;;;;;24.12;57.32;100691.84;7403489;19;1534;-59
2022/07/16 02:35:43;;;;;;;;;;;;;;;24.16;57.21;100688.63;7403717;19;1554;-59
2022/07/16 02:38:13;;;;;;;;;;;;;;;24.13;57.47;100688.97;7404043;19;1593;-59
2022/07/16 02:40:41;;;;;;;;;;;;;;;24.16;57.27;100698.59;7408690;19;1625;-59
2022/07/16 02:43:11;;;;;;;;;;;;;;;24.14;57.17;100690.66;7409809;19;1377;-59
2022/07/16 02:45:41;;;;;;;;;;;;;;;24.11;57.49;100693.69;7408164;19;1856;-58
2022/07/16 02:48:10;;;;;;;;;;;;;;;24.10;57.28;100693.88;7410869;19;1901;-59
2022/07/16 02:50:41;;;;;;;;;;;;;;;24.08;57.64;100696.75;7410308;19;1549;-58
2022/07/16 02:53:10;;;;;;;;;;;;;;;24.10;57.49;100694.72;7410808;19;1605;-59
2022/07/16 02:55:38;;;;;;;;;;;;;;;24.10;57.36;100697.41;7409941;19;1545;-58
2022/07/16 02:58:07;;;;;;;;;;;;;;;24.09;57.38;100698.41;7410462;19;1309;-58
2022/07/16 03:00:35;;;;;;;;;;;;;;;24.13;57.42;100707.88;7408431;19;1373;-58
2022/07/16 03:03:04;;;;;;;;;;;;;;;24.09;56.37;100695.72;7405740;19;1443;-58
2022/07/16 03:05:32;;;;;;;;;;;;;;;24.09;56.90;100711.91;7410364;19;1853;-58
2022/07/16 03:08:03;;;;;;;;;;;;;;;24.07;57.45;100705.84;7410307;19;1695;-58
2022/07/16 03:10:32;;;;;;;;;;;;;;;24.06;58.39;100708.75;7408684;19;1732;-58
2022/07/16 03:13:00;;;;;;;;;;;;;;;24.05;58.42;100718.69;7409390;19;1612;-58
2022/07/16 03:15:28;;;;;;;;;;;;;;;24.05;58.63;100710.56;7409914;19;1526;-58
2022/07/16 03:17:57;;;;;;;;;;;;;;;24.12;58.42;100727.81;7408216;19;1537;-58
2022/07/16 03:20:26;;;;;;;;;;;;;;;24.10;58.03;100720.88;7406910;19;1257;-59
2022/07/16 03:22:54;;;;;;;;;;;;;;;24.09;58.34;100706.50;7409012;19;1361;-59
2022/07/16 03:25:25;;;;;;;;;;;;;;;24.07;58.05;100713.09;7403890;19;1852;-59
2022/07/16 03:27:54;;;;;;;;;;;;;;;24.07;58.23;100722.06;7404168;19;1349;-59
2022/07/16 03:30:22;;;;;;;;;;;;;;;24.08;58.13;100722.91;7406229;19;1307;-59
2022/07/16 03:32:51;;;;;;;;;;;;;;;24.11;58.03;100726.09;7404922;19;1363;-59
2022/07/16 03:35:19;;;;;;;;;;;;;;;24.08;57.99;100717.50;7406120;19;1707;-58
2022/07/16 03:40:32;;;;;;;;;;;;;;;24.10;57.93;100724.44;7408021;19;1338;-59
2022/07/16 03:43:00;;;;;;;;;;;;;;;24.12;57.80;100729.66;7409123;19;1542;-58
2022/07/16 03:45:28;;;;;;;;;;;;;;;24.13;57.88;100734.91;7408288;19;1856;-58
2022/07/16 03:47:57;;;;;;;;;;;;;;;23.95;57.66;100691.00;7409634;19;1533;-59
2022/07/16 03:50:25;;;;;;;;;;;;;;;24.13;57.55;100723.22;7409159;19;1538;-62
2022/07/16 03:52:54;;;;;;;;;;;;;;;24.13;57.52;100726.81;7408620;19;1750;-62
2022/07/16 03:55:22;;;;;;;;;;;;;;;24.11;57.50;100745.00;7408540;19;1514;-59
2022/07/16 03:57:53;;;;;;;;;;;;;;;24.11;56.96;100745.00;7408061;19;1260;-59
2022/07/16 04:00:22;;;;;;;;;;;;;;;24.08;57.34;100753.47;7408345;19;1328;-60
2022/07/16 04:02:50;;;;;;;;;;;;;;;24.18;57.76;100754.13;7404201;19;1343;-59
2022/07/16 04:05:18;;;;;;;;;;;;;;;24.16;58.23;100763.44;7407482;19;1846;-59
2022/07/16 04:07:46;;;;;;;;;;;;;;;24.18;58.15;100756.84;7408160;19;1403;-60
2022/07/16 04:10:15;;;;;;;;;;;;;;;24.17;57.91;100749.75;7406836;19;1344;-61
2022/07/16 04:12:44;;;;;;;;;;;;;;;24.13;58.39;100742.16;7405890;19;1576;-60
2022/07/16 04:15:15;;;;;;;;;;;;;;;24.14;58.18;100752.78;7408197;19;1633;-59
2022/07/16 04:17:43;;;;;;;;;;;;;;;24.15;58.01;100757.19;7407407;19;1354;-59
2022/07/16 04:20:12;;;;;;;;;;;;;;;24.20;58.17;100760.22;7406283;19;1355;-62
2022/07/16 04:22:41;;;;;;;;;;;;;;;24.24;58.14;100749.06;7406337;19;1405;-59
2022/07/16 04:25:09;;;;;;;;;;;;;;;24.21;57.75;100759.22;7406519;19;1857;-64
2022/07/16 04:27:38;;;;;;;;;;;;;;;24.16;56.90;100766.97;7407205;19;1592;-57
2022/07/16 04:30:07;;;;;;;;;;;;;;;24.16;56.76;100758.88;7406922;19;1316;-58
2022/07/16 04:32:39;;;;;;;;;;;;;;;24.09;56.05;100754.31;7407124;19;1439;-60
2022/07/16 04:35:08;;;;;;;;;;;;;;;24.15;56.48;100762.59;7405219;19;1456;-59
2022/07/16 04:37:36;;;;;;;;;;;;;;;24.13;56.44;100740.31;7405665;19;1260;-62
2022/07/16 04:40:05;;;;;;;;;;;;;;;24.27;56.17;100756.81;7406182;19;1461;-57
2022/07/16 04:42:34;;;;;;;;;;;;;;;24.22;55.73;100747.38;7407618;19;1100;-59
2022/07/16 04:45:02;;;;;;;;;;;;;;;24.20;55.91;100743.16;7407139;19;1731;-60
2022/07/16 04:47:31;;;;;;;;;;;;;;;24.24;56.18;100747.22;7404119;19;1852;-61
2022/07/16 04:50:02;;;;;;;;;;;;;;;24.29;56.27;100738.59;7405515;19;1495;-57
2022/07/16 04:52:30;;;;;;;;;;;;;;;24.32;57.17;100733.69;7406337;19;1431;-63
2022/07/16 04:54:59;;;;;;;;;;;;;;;24.31;56.99;100755.47;7407585;19;1663;-62
2022/07/16 04:57:27;;;;;;;;;;;;;;;24.39;57.16;100744.63;7406730;19;1580;-57
2022/07/16 04:59:56;;;;;;;;;;;;;;;24.35;57.33;100748.69;7406071;19;1762;-63
2022/07/16 05:05:08;;;;;;;;;;;;;;;24.44;56.78;100755.78;7405029;19;1441;-63
2022/07/16 05:07:37;;;;;;;;;;;;;;;24.41;57.50;100759.69;7403441;19;1849;-60
2022/07/16 05:10:06;;;;;;;;;;;;;;;24.37;59.15;100760.19;7405562;19;1545;-56
2022/07/16 05:12:34;;;;;;;;;;;;;;;24.44;58.62;100760.38;7402481;19;1406;-60
2022/07/16 05:15:02;;;;;;;;;;;;;;;24.39;59.54;100774.38;7401722;19;1534;-56
2022/07/16 05:17:30;;;;;;;;;;;;;;;24.36;61.49;100763.91;7405046;19;1337;-56
2022/07/16 05:19:59;;;;;;;;;;;;;;;24.34;61.99;100776.75;7403869;19;1321;-56
2022/07/16 05:22:30;;;;;;;;;;;;;;;24.30;60.99;100764.59;7404635;19;1423;-56
2022/07/16 05:24:58;;;;;;;;;;;;;;;24.31;61.83;100769.84;7401607;19;1391;-60
2022/07/16 05:27:26;;;;;;;;;;;;;;;24.29;62.17;100758.38;7399751;19;1853;-60
2022/07/16 05:29:55;;;;;;;;;;;;;;;24.34;61.91;100760.53;7401596;19;1319;-61
2022/07/16 05:32:23;;;;;;;;;;;;;;;24.32;61.55;100770.69;7400444;19;1529;-60
2022/07/16 05:34:51;;;;;;;;;;;;;;;24.31;61.56;100771.69;7404017;19;1561;-60
2022/07/16 05:37:20;;;;;;;;;;;;;;;24.29;61.71;100779.13;7400343;19;1416;-60
2022/07/16 05:39:51;;;;;;;;;;;;;;;24.27;61.44;100784.69;7402180;19;1547;-60
2022/07/16 05:42:19;;;;;;;;;;;;;;;24.25;61.13;100777.78;7402575;19;1518;-56
2022/07/16 05:44:47;;;;;;;;;;;;;;;24.27;61.38;100786.56;7399247;19;1700;-56
2022/07/16 05:47:16;;;;;;;;;;;;;;;24.27;61.57;100797.38;7403130;19;1859;-61
2022/07/16 05:49:44;;;;;;;;;;;;;;;24.25;61.46;100804.78;7401334;19;1278;-60
2022/07/16 05:52:12;;;;;;;;;;;;;;;24.20;61.51;100792.63;7401924;19;1694;-56
2022/07/16 05:54:41;;;;;;;;;;;;;;;24.21;61.59;100799.75;7399723;19;1531;-60
2022/07/16 05:57:12;;;;;;;;;;;;;;;24.22;61.17;100793.31;7401168;19;1782;-60
2022/07/16 05:59:40;;;;;;;;;;;;;;;24.22;61.14;100811.38;7402900;19;1552;-61
2022/07/16 06:02:08;;;;;;;;;;;;;;;24.27;61.23;100797.38;7400461;19;1562;-60
2022/07/16 06:04:37;;;;;;;;;;;;;;;24.27;61.14;100792.78;7401051;19;1484;-60
2022/07/16 06:07:05;;;;;;;;;;;;;;;24.30;60.80;100792.47;7396551;19;1838;-56
2022/07/16 06:09:33;;;;;;;;;;;;;;;24.30;60.90;100802.44;7401492;19;1280;-56
2022/07/16 06:12:02;;;;;;;;;;;;;;;24.34;60.83;100793.81;7401688;19;1482;-56
2022/07/16 06:14:33;;;;;;;;;;;;;;;24.30;60.59;100813.25;7402739;19;1412;-56
2022/07/16 06:17:01;;;;;;;;;;;;;;;24.28;60.36;100797.19;7411206;19;1569;-60
2022/07/16 06:19:30;;;;;;;;;;;;;;;24.26;60.56;100806.50;7410733;19;1544;-61
2022/07/16 06:21:58;;;;;;;;;;;;;;;24.31;60.47;100804.13;7408841;19;1408;-56
2022/07/16 06:24:26;;;;;;;;;;;;;;;24.26;60.50;100804.63;7410126;19;1173;-55
2022/07/16 06:26:55;;;;;;;;;;;;;;;24.26;60.15;100801.94;7408008;19;1867;-60
2022/07/16 06:29:23;;;;;;;;;;;;;;;24.30;60.23;100791.63;7410575;19;1549;-56
2022/07/16 06:31:54;;;;;;;;;;;;;;;24.34;59.81;100787.56;7411354;19;1514;-55
2022/07/16 06:34:22;;;;;;;;;;;;;;;24.36;59.69;100780.97;7410339;19;1467;-56
2022/07/16 06:36:51;;;;;;;;;;;;;;;24.35;59.75;100783.84;7407805;19;1393;-56
2022/07/16 06:39:19;;;;;;;;;;;;;;;24.31;60.02;100793.31;7409821;19;1345;-56
2022/07/16 06:41:47;;;;;;;;;;;;;;;24.36;59.64;100801.75;7409050;19;1517;-60
2022/07/16 06:44:16;;;;;;;;;;;;;;;24.32;60.01;100812.06;7405516;19;1308;-56
2022/07/16 06:46:44;;;;;;;;;;;;;;;24.38;59.84;100805.13;7407222;19;1846;-56
2022/07/16 06:49:15;;;;;;;;;;;;;;;24.35;60.08;100808.16;7404651;19;1245;-55
2022/07/16 06:51:44;;;;;;;;;;;;;;;24.35;59.72;100822.53;7406770;19;1264;-56
2022/07/16 06:54:12;;;;;;;;;;;;;;;24.37;59.83;100812.41;7404356;19;1645;-55
2022/07/16 06:56:41;;;;;;;;;;;;;;;24.39;59.88;100825.72;7406606;19;1518;-56
2022/07/16 06:59:09;;;;;;;;;;;;;;;24.38;59.46;100813.25;7402977;19;1572;-60
2022/07/16 07:01:37;;;;;;;;;;;;;;;24.30;59.86;100807.84;7403536;19;1420;-56
2022/07/16 07:04:06;;;;;;;;;;;;;;;24.35;59.85;100818.97;7403229;19;1502;-60
2022/07/16 07:06:37;;;;;;;;;;;;;;;24.37;59.60;100808.84;7404674;19;1862;-56
2022/07/16 07:09:05;;;;;;;;;;;;;;;24.36;59.74;100812.56;7410012;19;1522;-56
2022/07/16 07:11:34;;;;;;;;;;;;;;;24.38;59.67;100818.66;7405294;19;1529;-56
2022/07/16 07:14:02;;;;;;;;;;;;;;;24.38;59.54;100813.25;7406149;19;1204;-56
2022/07/16 07:16:30;;;;;;;;;;;;;;;24.36;59.46;100812.56;7407834;19;1628;-60
2022/07/16 07:18:59;;;;;;;;;;;;;;;24.39;59.33;100812.22;7408936;19;1391;-56
2022/07/16 07:21:27;;;;;;;;;;;;;;;24.36;59.38;100808.00;7408475;19;1216;-56
2022/07/16 07:23:58;;;;;;;;;;;;;;;24.38;59.39;100794.31;7410406;19;1561;-56
2022/07/16 07:26:26;;;;;;;;;;;;;;;24.30;59.70;100792.47;7407944;19;1853;-56
2022/07/16 07:28:55;;;;;;;;;;;;;;;24.32;59.59;100793.13;7409936;19;1572;-60
2022/07/16 07:31:23;;;;;;;;;;;;;;;24.35;59.58;100783.84;7410210;19;1173;-56
2022/07/16 07:33:52;;;;;;;;;;;;;;;24.38;59.57;100799.72;7407996;19;1541;-60
2022/07/16 07:36:20;;;;;;;;;;;;;;;24.33;59.39;100778.63;7409405;19;1204;-60
2022/07/16 07:38:48;;;;;;;;;;;;;;;24.35;59.57;100779.31;7409558;19;1616;-56
2022/07/16 07:41:19;;;;;;;;;;;;;;;24.33;59.54;100775.94;7408900;19;1353;-60
2022/07/16 07:43:47;;;;;;;;;;;;;;;24.37;59.14;100788.09;7407558;19;1244;-56
2022/07/16 07:46:16;;;;;;;;;;;;;;;24.33;59.47;100781.34;7407216;19;1873;-56
2022/07/16 07:48:45;;;;;;;;;;;;;;;24.39;59.38;100785.19;7409474;19;1340;-56
2022/07/16 07:51:13;;;;;;;;;;;;;;;24.38;59.35;100787.06;7408103;19;1546;-56
2022/07/16 07:53:42;;;;;;;;;;;;;;;24.35;59.56;100781.13;7408847;19;1605;-56
2022/07/16 07:56:12;;;;;;;;;;;;;;;24.38;59.09;100786.22;7408789;19;1267;-60
2022/07/16 07:58:43;;;;;;;;;;;;;;;24.36;59.36;100791.78;7407827;19;1624;-60
2022/07/16 08:01:11;;;;;;;;;;;;;;;24.35;59.45;100794.66;7407476;19;1588;-60
2022/07/16 08:03:40;;;;;;;;;;;;;;;24.34;59.47;100787.56;7409220;19;1628;-56
2022/07/16 08:06:08;;;;;;;;;;;;;;;24.36;59.19;100785.53;7406565;19;1360;-56
2022/07/16 08:08:36;;;;;;;;;;;;;;;24.36;59.39;100790.94;7405418;19;1856;-60
2022/07/16 08:11:05;;;;;;;;;;;;;;;24.35;59.15;100783.84;7407869;19;1444;-60
2022/07/16 08:13:33;;;;;;;;;;;;;;;24.38;59.55;100783.50;7408660;19;1641;-56
2022/07/16 08:16:04;;;;;;;;;;;;;;;24.32;59.55;100786.91;7407739;19;1672;-56
2022/07/16 08:18:32;;;;;;;;;;;;;;;24.36;59.41;100793.66;7407058;19;1534;-56
2022/07/16 08:21:01;;;;;;;;;;;;;;;24.37;59.55;100798.03;7407744;19;1557;-60
2022/07/16 08:26:10;;;;;;;;;;;;;;;24.41;59.34;100781.31;7408155;19;1666;-60
2022/07/16 08:28:41;;;;;;;;;;;;;;;24.38;59.32;100772.69;7405924;19;1842;-56
2022/07/16 08:31:13;;;;;;;;;;;;;;;24.38;59.35;100768.13;7407343;19;1617;-56
2022/07/16 08:33:41;;;;;;;;;;;;;;;24.38;59.30;100778.94;7407450;19;1180;-57
2022/07/16 08:36:10;;;;;;;;;;;;;;;24.36;59.46;100772.03;7405370;19;1439;-60
2022/07/16 08:38:38;;;;;;;;;;;;;;;24.35;59.42;100770.31;7407322;19;1601;-56
2022/07/16 08:41:07;;;;;;;;;;;;;;;24.35;59.68;100765.78;7407685;19;1457;-60
2022/07/16 08:43:35;;;;;;;;;;;;;;;24.31;59.28;100777.09;7404926;19;1208;-56
2022/07/16 08:46:04;;;;;;;;;;;;;;;24.35;59.51;100767.63;7407164;19;1617;-56
2022/07/16 08:48:35;;;;;;;;;;;;;;;24.36;59.45;100766.63;7405355;19;1843;-60
2022/07/16 08:51:03;;;;;;;;;;;;;;;24.40;59.32;100768.81;7406240;19;1593;-60
2022/07/16 08:53:33;;;;;;;;;;;;;;;24.38;59.33;100768.13;7407335;19;1546;-60
2022/07/16 08:56:02;;;;;;;;;;;;;;;24.38;59.32;100761.88;7406432;19;1422;-56
2022/07/16 08:58:32;;;;;;;;;;;;;;;24.38;59.23;100778.94;7404768;19;1713;-60
2022/07/16 09:01:00;;;;;;;;;;;;;;;24.39;59.53;100763.56;7406799;19;1537;-59
2022/07/16 09:03:29;;;;;;;;;;;;;;;24.38;59.09;100767.28;7406197;19;1555;-56
2022/07/16 09:06:00;;;;;;;;;;;;;;;24.37;59.22;100771.00;7405961;19;1897;-56
2022/07/16 09:08:28;;;;;;;;;;;;;;;24.38;59.37;100784.34;7406378;19;1847;-60
2022/07/16 09:10:57;;;;;;;;;;;;;;;24.37;59.21;100757.47;7406419;19;1573;-60
2022/07/16 09:13:25;;;;;;;;;;;;;;;24.36;59.32;100753.94;7405691;19;1617;-60
2022/07/16 09:15:54;;;;;;;;;;;;;;;24.38;59.12;100762.72;7406140;19;1624;-56
2022/07/16 09:18:23;;;;;;;;;;;;;;;24.43;59.13;100775.72;7406224;19;1494;-56
2022/07/16 09:20:53;;;;;;;;;;;;;;;24.37;59.21;100773.69;7404832;19;1679;-56
2022/07/16 09:23:26;;;;;;;;;;;;;;;24.38;59.34;100756.47;7405369;19;1612;-56
2022/07/16 09:25:56;;;;;;;;;;;;;;;24.38;59.33;100751.06;7405712;19;1611;-60
2022/07/16 09:28:25;;;;;;;;;;;;;;;24.34;59.44;100768.66;7404159;19;1852;-56
2022/07/16 09:30:54;;;;;;;;;;;;;;;24.34;59.32;100755.13;7405038;19;1558;-60
2022/07/16 09:33:23;;;;;;;;;;;;;;;24.32;59.41;100758.00;7404934;19;1590;-56
2022/07/16 09:36:05;;;;;;;;;;;;;;;24.39;59.63;100760.84;7405294;19;1525;-59
2022/07/16 09:38:49;;;;;;;;;;;;;;;24.30;59.70;100748.38;7406311;19;1629;-60
2022/07/16 09:41:20;;;;;;;;;;;;;;;24.33;59.48;100772.34;7404912;19;1274;-57
2022/07/16 09:43:48;;;;;;;;;;;;;;;24.36;59.46;100761.22;7403742;19;1320;-56
2022/07/16 09:46:20;;;;;;;;;;;;;;;24.35;59.37;100756.81;7405043;19;1562;-58
2022/07/16 09:48:49;;;;;;;;;;;;;;;24.38;59.12;100759.19;7402977;19;1855;-56
2022/07/16 09:51:19;;;;;;;;;;;;;;;24.39;59.34;100759.03;7404776;19;1544;-60
2022/07/16 09:53:47;;;;;;;;;;;;;;;24.39;59.22;100758.16;7405231;19;1661;-59
2022/07/16 09:56:17;;;;;;;;;;;;;;;24.39;59.36;100747.34;7404284;19;1639;-59
2022/07/16 09:58:52;;;;;;;;;;;;;;;24.39;59.32;100759.03;7403557;19;1329;-56
2022/07/16 10:01:21;;;;;;;;;;;;;;;24.41;59.31;100761.53;7403809;19;1549;-56
2022/07/16 10:03:50;;;;;;;;;;;;;;;24.47;59.50;100766.28;7403148;19;1647;-56
2022/07/16 10:06:19;;;;;;;;;;;;;;;24.38;59.46;100741.09;7403937;19;1627;-56
2022/07/16 10:08:48;;;;;;;;;;;;;;;24.38;59.23;100737.56;7403279;19;1849;-56
2022/07/16 10:11:16;;;;;;;;;;;;;;;24.41;59.22;100734.50;7403397;19;1562;-60
2022/07/16 10:13:47;;;;;;;;;;;;;;;24.39;59.38;100745.50;7404909;19;1360;-60
2022/07/16 10:16:18;;;;;;;;;;;;;;;24.35;59.32;100738.75;7402405;19;1365;-60
2022/07/16 10:18:47;;;;;;;;;;;;;;;24.37;59.29;100735.84;7404829;19;1328;-56
2022/07/16 10:21:16;;;;;;;;;;;;;;;24.36;59.51;100736.91;7403729;19;1581;-56
2022/07/16 10:23:47;;;;;;;;;;;;;;;24.38;59.39;100740.25;7404404;19;1533;-56
2022/07/16 10:26:17;;;;;;;;;;;;;;;24.36;59.64;100726.09;7403525;19;1537;-56
2022/07/16 10:28:47;;;;;;;;;;;;;;;24.38;59.20;100729.44;7401708;19;1911;-60
2022/07/16 10:31:30;;;;;;;;;;;;;;;24.35;59.49;100738.75;7402494;19;1533;-60
2022/07/16 10:34:13;;;;;;;;;;;;;;;24.38;59.61;100729.44;7402994;19;1625;-59
2022/07/16 10:36:52;;;;;;;;;;;;;;;24.35;59.39;100713.56;7402270;19;2682;-56
2022/07/16 10:39:20;;;;;;;;;;;;;;;24.36;59.44;100726.91;7403128;19;1609;-56
2022/07/16 10:41:50;;;;;;;;;;;;;;;24.39;59.56;100725.72;7403629;19;1659;-56
2022/07/16 10:44:18;;;;;;;;;;;;;;;24.36;59.51;100715.28;7403694;19;1553;-60
2022/07/16 10:46:57;;;;;;;;;;;;;;;24.37;59.55;100714.25;7402300;19;1353;-60
2022/07/16 10:49:25;;;;;;;;;;;;;;;24.32;59.31;100703.97;7401044;19;1847;-60
2022/07/16 10:52:05;;;;;;;;;;;;;;;24.36;59.25;100712.56;7402079;19;1495;-56
2022/07/16 10:54:35;;;;;;;;;;;;;;;24.40;59.39;100703.09;7403742;19;1495;-60
2022/07/16 10:57:07;;;;;;;;;;;;;;;24.31;59.53;100694.19;7402538;19;1499;-60
2022/07/16 10:59:36;;;;;;;;;;;;;;;24.37;59.21;100700.72;7402990;19;1555;-56
2022/07/16 11:02:07;;;;;;;;;;;;;;;24.39;59.36;100709.50;7408726;19;1479;-60
2022/07/16 11:04:39;;;;;;;;;;;;;;;24.40;59.39;100713.91;7410692;19;1435;-60
2022/07/16 11:07:12;;;;;;;;;;;;;;;24.34;59.46;100695.69;7409359;19;1789;-56
2022/07/16 11:09:41;;;;;;;;;;;;;;;24.39;59.46;100709.50;7409947;19;1553;-60
2022/07/16 11:12:11;;;;;;;;;;;;;;;24.40;59.39;100692.28;7407884;19;1775;-56
2022/07/16 11:14:40;;;;;;;;;;;;;;;24.42;59.31;100701.06;7409533;19;1748;-56
2022/07/16 11:17:09;;;;;;;;;;;;;;;24.42;59.19;100698.34;7410573;19;1542;-60
2022/07/16 11:19:38;;;;;;;;;;;;;;;24.40;59.48;100689.59;7410278;19;1365;-56
2022/07/16 11:22:06;;;;;;;;;;;;;;;24.42;59.50;100698.34;7409534;19;1616;-60
2022/07/16 11:24:37;;;;;;;;;;;;;;;24.40;59.54;100700.41;7409780;19;1624;-56
2022/07/16 11:27:08;;;;;;;;;;;;;;;24.41;59.51;100708.34;7409396;19;1421;-56
2022/07/16 11:29:36;;;;;;;;;;;;;;;24.41;59.51;100700.22;7407053;19;1849;-60
2022/07/16 11:32:04;;;;;;;;;;;;;;;24.42;59.24;100722.69;7409459;19;1145;-58
2022/07/16 11:34:34;;;;;;;;;;;;;;;24.38;59.28;100700.56;7408660;19;1644;-56
2022/07/16 11:37:03;;;;;;;;;;;;;;;24.36;59.21;100705.28;7408611;19;1609;-56
2022/07/16 11:39:31;;;;;;;;;;;;;;;24.42;59.31;100704.59;7408686;19;1545;-60
2022/07/16 11:42:02;;;;;;;;;;;;;;;24.42;59.29;100710.00;7409112;19;1625;-60
2022/07/16 11:44:31;;;;;;;;;;;;;;;24.40;59.12;100697.69;7407638;19;1533;-59
2022/07/16 11:47:01;;;;;;;;;;;;;;;24.45;59.42;100707.97;7408535;19;1208;-59
2022/07/16 11:49:31;;;;;;;;;;;;;;;24.42;59.35;100695.66;7406605;19;1860;-60
2022/07/16 11:52:00;;;;;;;;;;;;;;;24.46;59.20;100712.38;7407872;19;1629;-56
2022/07/16 11:54:29;;;;;;;;;;;;;;;24.43;59.29;100710.84;7408379;19;1616;-56
2022/07/16 11:56:58;;;;;;;;;;;;;;;24.47;59.39;100712.22;7407710;19;1763;-59
2022/07/16 11:59:30;;;;;;;;;;;;;;;24.45;59.37;100705.28;7408874;19;1553;-60
2022/07/16 12:01:59;;;;;;;;;;;;;;;24.45;59.35;100716.09;7406104;19;1430;-56
2022/07/16 12:04:38;;;;;;;;;;;;;;;24.46;59.46;100713.22;7408032;19;1353;-60
2022/07/16 12:07:07;;;;;;;;;;;;;;;24.43;59.06;100702.72;7407601;19;1584;-56
2022/07/16 12:09:37;;;;;;;;;;;;;;;24.43;59.03;100689.22;7405733;19;1815;-59
2022/07/16 12:12:07;;;;;;;;;;;;;;;24.45;59.15;100695.28;7406102;19;1763;-60
2022/07/16 12:14:53;;;;;;;;;;;;;;;24.45;59.21;100707.97;7408624;19;1633;-56
2022/07/16 12:17:28;;;;;;;;;;;;;;;24.46;59.24;100698.88;7406995;19;1669;-60
2022/07/16 12:20:11;;;;;;;;;;;;;;;24.48;59.18;100694.97;7407515;19;1265;-56
2022/07/16 12:22:47;;;;;;;;;;;;;;;24.46;59.41;100699.69;7406867;19;1769;-60
2022/07/16 12:25:19;;;;;;;;;;;;;;;24.45;58.92;100692.59;7407672;19;1640;-56
2022/07/16 12:27:49;;;;;;;;;;;;;;;24.48;59.13;100697.66;7406959;19;1865;-59
2022/07/16 12:30:17;;;;;;;;;;;;;;;24.51;59.13;100700.06;7408335;19;1574;-60
2022/07/16 12:32:52;;;;;;;;;;;;;;;24.46;59.18;100702.41;7408299;19;1612;-60
2022/07/16 12:35:36;;;;;;;;;;;;;;;24.46;59.24;100677.25;7407761;19;1763;-60
2022/07/16 12:38:04;;;;;;;;;;;;;;;24.50;59.39;100700.19;7406998;19;1526;-56
2022/07/16 12:40:33;;;;;;;;;;;;;;;24.50;58.98;100701.06;7406918;19;1558;-56
2022/07/16 12:43:01;;;;;;;;;;;;;;;24.47;59.30;100687.88;7404170;19;1691;-60
2022/07/16 12:45:29;;;;;;;;;;;;;;;24.48;59.42;100691.44;7407019;19;1428;-60
2022/07/16 12:48:00;;;;;;;;;;;;;;;24.54;59.23;100691.59;7406248;19;1854;-56
2022/07/16 12:50:29;;;;;;;;;;;;;;;24.47;59.27;100696.00;7404963;19;1388;-60
2022/07/16 12:52:57;;;;;;;;;;;;;;;24.49;59.32;100693.97;7407029;19;1651;-59
2022/07/16 13:00:47;;;;;;;;;;;;;;;24.48;59.16;100669.81;7402270;19;1316;-59
2022/07/16 13:03:18;;;;;;;;;;;;;;;24.46;59.22;100667.25;7405790;19;1398;-56
2022/07/16 13:05:46;;;;;;;;;;;;;;;24.46;59.22;100661.84;7405762;19;1206;-56
2022/07/16 13:08:15;;;;;;;;;;;;;;;24.49;59.00;100671.47;7406151;19;1861;-56
2022/07/16 13:10:46;;;;;;;;;;;;;;;24.52;58.98;100681.97;7401509;19;1626;-56
2022/07/16 13:13:14;;;;;;;;;;;;;;;24.49;59.22;100683.16;7404637;19;1711;-56
2022/07/16 13:15:42;;;;;;;;;;;;;;;24.55;58.96;100689.72;7404928;19;1637;-56